Time;durP1;ratioP1;P1;durP2;ratioP2;P2;SDS_P1;SDS_P2;PMS_P1;PMS_P2;Temp;Humidity;BMP_temperature;BMP_pressure;BME280_temperature;BME280_humidity;BME280_pressure;Samples;Min_cycle;Max_cycle;Signal;HPM_P1;HPM_P2
2023/12/30 00:00:28;;;;;;;185.70;174.90;;;;;;;7.00;100.00;100026.44;5045113;28;20431;-42
2023/12/30 00:02:57;;;;;;;189.63;179.50;;;;;;;7.03;100.00;100028.72;5050399;28;20439;-43
2023/12/30 00:05:28;;;;;;;185.57;174.67;;;;;;;7.02;100.00;100031.53;5050156;28;20463;-43
2023/12/30 00:07:56;;;;;;;186.50;176.23;;;;;;;7.04;100.00;100040.13;5037640;28;20558;-42
2023/12/30 00:10:24;;;;;;;168.30;159.77;;;;;;;6.75;100.00;100038.44;5049558;28;20518;-43
2023/12/30 00:12:52;;;;;;;169.83;161.43;;;;;;;6.73;100.00;100013.13;5050442;28;20439;-41
2023/12/30 00:15:20;;;;;;;183.00;174.27;;;;;;;6.77;100.00;100030.31;5050147;28;20442;-44
2023/12/30 00:17:48;;;;;;;184.53;175.63;;;;;;;6.77;100.00;100025.00;5042063;28;20871;-41
2023/12/30 00:20:17;;;;;;;188.80;180.07;;;;;;;6.77;100.00;100017.06;5049670;28;20523;-44
2023/12/30 00:22:46;;;;;;;196.07;186.83;;;;;;;6.78;100.00;100021.34;5050280;28;20922;-41
2023/12/30 00:25:14;;;;;;;204.77;194.10;;;;;;;6.77;100.00;100023.19;5049959;28;20934;-41
2023/12/30 00:27:42;;;;;;;191.80;183.43;;;;;;;6.70;100.00;100035.53;5041320;28;20819;-41
2023/12/30 00:30:13;;;;;;;179.93;171.63;;;;;;;6.67;100.00;100020.00;5041726;28;20431;-41
2023/12/30 00:32:41;;;;;;;173.73;166.70;;;;;;;6.53;100.00;100027.00;5050107;28;20702;-43
2023/12/30 00:35:09;;;;;;;178.03;169.80;;;;;;;6.45;100.00;100024.47;5042423;28;20443;-43
2023/12/30 00:37:37;;;;;;;192.87;184.07;;;;;;;6.43;100.00;100037.09;5043980;28;20983;-41
2023/12/30 00:40:08;;;;;;;178.90;171.10;;;;;;;6.41;100.00;100043.56;5039702;28;20440;-41
2023/12/30 00:42:36;;;;;;;169.23;160.97;;;;;;;6.37;100.00;100050.25;5050330;28;20438;-40
2023/12/30 00:45:05;;;;;;;156.07;149.17;;;;;;;6.28;100.00;100057.47;5050312;28;20439;-41
2023/12/30 00:47:33;;;;;;;155.27;148.17;;;;;;;6.21;100.00;100056.59;5049963;28;20498;-40
2023/12/30 00:50:01;;;;;;;166.47;159.33;;;;;;;6.23;100.00;100056.41;5050192;28;20439;-41
2023/12/30 00:52:29;;;;;;;165.77;158.53;;;;;;;6.20;100.00;100070.00;5051966;28;20475;-41
2023/12/30 00:54:57;;;;;;;169.33;161.87;;;;;;;6.06;100.00;100072.47;5054630;28;20446;-41
2023/12/30 00:57:26;;;;;;;170.77;163.20;;;;;;;5.94;100.00;100060.69;5053283;28;20460;-42
2023/12/30 00:59:54;;;;;;;175.23;167.87;;;;;;;5.87;100.00;100062.44;5054534;28;20945;-43
2023/12/30 01:02:22;;;;;;;176.13;168.80;;;;;;;5.84;100.00;100064.59;5038028;28;20462;-42
2023/12/30 01:04:50;;;;;;;172.87;165.87;;;;;;;5.85;100.00;100071.53;5045935;28;20477;-42
2023/12/30 01:07:18;;;;;;;177.90;169.37;;;;;;;5.80;100.00;100073.91;5053700;28;20532;-44
2023/12/30 01:09:46;;;;;;;178.17;170.67;;;;;;;5.77;100.00;100066.31;5053519;28;20535;-42
2023/12/30 01:12:14;;;;;;;165.60;158.90;;;;;;;5.70;100.00;100050.38;5052908;28;20532;-43
2023/12/30 01:14:43;;;;;;;160.50;154.03;;;;;;;5.69;100.00;100058.47;5044860;28;20435;-42
2023/12/30 01:17:12;;;;;;;166.00;159.40;;;;;;;5.74;100.00;100059.56;5050454;28;21032;-42
2023/12/30 01:19:40;;;;;;;168.33;161.63;;;;;;;5.77;100.00;100055.75;5046866;28;20439;-45
2023/12/30 01:22:08;;;;;;;173.17;166.13;;;;;;;5.79;100.00;100054.59;5044172;28;20950;-44
2023/12/30 01:24:35;;;;;;;181.50;174.27;;;;;;;5.81;100.00;100064.97;5052710;28;20505;-43
2023/12/30 01:27:03;;;;;;;187.30;180.23;;;;;;;5.78;100.00;100070.63;5043750;28;20456;-40
2023/12/30 01:29:31;;;;;;;186.37;179.20;;;;;;;5.78;100.00;100073.28;5032888;28;20460;-42
2023/12/30 01:32:00;;;;;;;181.67;174.03;;;;;;;5.71;100.00;100075.81;5049052;28;20475;-41
2023/12/30 01:34:28;;;;;;;188.43;181.10;;;;;;;5.74;100.00;100082.56;5044770;28;20462;-42
2023/12/30 01:36:56;;;;;;;182.30;174.70;;;;;;;5.73;100.00;100078.28;5051886;28;20466;-40
2023/12/30 01:39:24;;;;;;;187.03;179.73;;;;;;;5.75;100.00;100085.03;5052256;28;20435;-41
2023/12/30 01:41:52;;;;;;;184.30;176.73;;;;;;;5.75;100.00;100081.56;5052790;28;20431;-40
2023/12/30 01:44:20;;;;;;;192.70;185.00;;;;;;;5.76;100.00;100091.97;5052168;28;20467;-42
2023/12/30 01:46:49;;;;;;;195.73;187.80;;;;;;;5.81;100.00;100088.78;5051757;28;20490;-43
2023/12/30 01:49:18;;;;;;;191.60;183.67;;;;;;;5.82;100.00;100087.78;5049474;28;20450;-43
2023/12/30 01:51:47;;;;;;;190.30;182.80;;;;;;;5.87;100.00;100094.19;5040550;28;20484;-41
2023/12/30 01:54:17;;;;;;;191.37;183.07;;;;;;;5.89;100.00;100094.00;5050620;28;20526;-41
2023/12/30 01:56:45;;;;;;;206.03;197.07;;;;;;;5.92;100.00;100106.88;5051825;28;20491;-44
2023/12/30 01:59:15;;;;;;;194.40;185.40;;;;;;;5.94;100.00;100097.75;5051806;28;20436;-41
2023/12/30 02:01:44;;;;;;;189.23;181.73;;;;;;;5.93;100.00;100111.16;5043603;28;20446;-45
2023/12/30 02:04:13;;;;;;;197.20;188.77;;;;;;;5.97;100.00;100125.69;5051845;28;20435;-45
2023/12/30 02:06:42;;;;;;;204.23;196.03;;;;;;;5.96;100.00;100119.56;5051391;28;20530;-42
2023/12/30 02:09:10;;;;;;;180.53;173.33;;;;;;;5.85;100.00;100121.81;5051541;28;20435;-41
2023/12/30 02:11:38;;;;;;;179.70;172.27;;;;;;;5.83;100.00;100129.94;5051692;28;22987;-41
2023/12/30 02:14:24;;;;;;;176.27;169.20;;;;;;;5.72;100.00;100142.78;5043173;28;21129;-41
2023/12/30 02:16:52;;;;;;;178.07;171.07;;;;;;;5.64;100.00;100129.63;5050614;28;20521;-42
2023/12/30 02:19:20;;;;;;;174.70;167.70;;;;;;;5.56;100.00;100138.44;5051025;28;20449;-42
2023/12/30 02:21:52;;;;;;;174.97;167.90;;;;;;;5.56;100.00;100151.66;5051703;28;20438;-41
2023/12/30 02:24:21;;;;;;;180.93;173.57;;;;;;;5.53;100.00;100144.09;5051756;28;20446;-44
2023/12/30 02:26:49;;;;;;;174.37;167.27;;;;;;;5.51;100.00;100143.47;5050929;28;20451;-42
2023/12/30 02:29:17;;;;;;;170.90;163.93;;;;;;;5.47;100.00;100139.50;5051241;28;20439;-44
2023/12/30 02:31:48;;;;;;;170.83;163.90;;;;;;;5.40;100.00;100159.75;5051401;28;20875;-43
2023/12/30 02:34:18;;;;;;;177.40;170.57;;;;;;;5.39;100.00;100152.81;5049722;28;20446;-44
2023/12/30 02:36:48;;;;;;;177.50;170.50;;;;;;;5.38;100.00;100153.81;5045335;28;20455;-42
2023/12/30 02:39:16;;;;;;;173.13;165.90;;;;;;;5.30;100.00;100162.63;5050718;28;20459;-44
2023/12/30 02:41:46;;;;;;;165.47;158.77;;;;;;;5.27;100.00;100149.75;5051708;28;20518;-46
2023/12/30 02:44:18;;;;;;;184.47;177.13;;;;;;;5.24;100.00;100151.94;5051419;28;20463;-42
2023/12/30 02:46:46;;;;;;;173.87;167.37;;;;;;;5.22;100.00;100146.00;5050509;28;20484;-43
2023/12/30 02:49:14;;;;;;;166.70;160.10;;;;;;;5.22;100.00;100153.94;5050858;28;20926;-46
2023/12/30 02:51:42;;;;;;;168.90;162.10;;;;;;;5.23;100.00;100161.69;5051169;28;20439;-43
2023/12/30 02:54:10;;;;;;;166.17;159.77;;;;;;;5.24;100.00;100163.34;5050480;28;20489;-43
2023/12/30 02:56:37;;;;;;;164.70;158.40;;;;;;;5.21;100.00;100154.94;5043069;28;20567;-44
2023/12/30 02:59:07;;;;;;;158.93;152.83;;;;;;;5.20;100.00;100156.75;5020643;28;20455;-43
2023/12/30 03:01:37;;;;;;;165.00;158.80;;;;;;;5.27;100.00;100162.16;5037335;28;20459;-43
2023/12/30 03:04:05;;;;;;;169.00;162.70;;;;;;;5.30;100.00;100159.16;5039854;28;20452;-43
2023/12/30 03:06:33;;;;;;;164.67;158.17;;;;;;;5.29;100.00;100165.44;5040373;28;20459;-46
2023/12/30 03:09:01;;;;;;;163.70;157.20;;;;;;;5.29;100.00;100173.38;5048016;28;20490;-43
2023/12/30 03:11:29;;;;;;;162.50;156.03;;;;;;;5.26;100.00;100174.53;5048450;28;20490;-44
2023/12/30 03:13:57;;;;;;;172.17;165.30;;;;;;;5.32;100.00;100170.38;5049089;28;20566;-41
2023/12/30 03:16:26;;;;;;;170.47;163.37;;;;;;;5.35;100.00;100165.56;5048608;28;20814;-40
2023/12/30 03:18:55;;;;;;;164.63;158.20;;;;;;;5.37;100.00;100162.75;5048556;28;20455;-46
2023/12/30 03:21:23;;;;;;;166.00;159.00;;;;;;;5.37;100.00;100165.41;5048294;28;20539;-44
2023/12/30 03:23:51;;;;;;;169.03;162.17;;;;;;;5.37;100.00;100181.25;5049223;28;20442;-44
2023/12/30 03:26:19;;;;;;;169.33;162.70;;;;;;;5.37;100.00;100173.31;5030474;28;20558;-43
2023/12/30 03:28:47;;;;;;;176.30;169.60;;;;;;;5.41;100.00;100187.81;5041634;28;20521;-45
2023/12/30 03:31:22;;;;;;;173.67;166.77;;;;;;;5.42;100.00;100187.66;5047927;28;20527;-45
2023/12/30 03:33:51;;;;;;;193.03;185.73;;;;;;;5.42;100.00;100189.47;5049076;28;20471;-42
2023/12/30 03:36:20;;;;;;;186.13;178.60;;;;;;;5.39;100.00;100190.66;5039981;28;20455;-42
2023/12/30 03:38:49;;;;;;;193.43;186.20;;;;;;;5.41;100.00;100187.81;5048190;28;20455;-47
2023/12/30 03:41:17;;;;;;;202.03;193.70;;;;;;;5.34;100.00;100190.38;5048331;28;20471;-44
2023/12/30 03:43:45;;;;;;;204.77;196.80;;;;;;;5.33;100.00;100196.66;5048737;28;20434;-44
2023/12/30 03:46:13;;;;;;;206.03;197.43;;;;;;;5.34;100.00;100200.94;5047454;28;20434;-43
2023/12/30 03:48:41;;;;;;;205.97;196.93;;;;;;;5.39;100.00;100197.75;5047842;28;20999;-44
2023/12/30 03:51:11;;;;;;;199.70;192.10;;;;;;;5.41;100.00;100196.59;5040468;28;20786;-44
2023/12/30 03:53:38;;;;;;;193.03;185.43;;;;;;;5.44;100.00;100203.34;5041205;28;20981;-40
2023/12/30 03:56:07;;;;;;;203.30;195.33;;;;;;;5.46;100.00;100191.59;5040118;28;20441;-47
2023/12/30 03:58:34;;;;;;;205.57;196.17;;;;;;;5.41;100.00;100204.50;5048218;28;20459;-41
2023/12/30 04:01:03;;;;;;;195.20;187.40;;;;;;;5.38;100.00;100215.44;5048248;28;21028;-43
2023/12/30 04:03:31;;;;;;;196.67;188.97;;;;;;;5.40;100.00;100215.28;5031304;28;20423;-42
2023/12/30 04:05:59;;;;;;;199.47;191.03;;;;;;;5.41;100.00;100217.72;5039491;28;20936;-40
2023/12/30 04:08:28;;;;;;;199.30;191.33;;;;;;;5.38;100.00;100217.25;5047264;28;20513;-46
2023/12/30 04:10:56;;;;;;;197.17;188.90;;;;;;;5.30;100.00;100209.38;5047861;28;20447;-43
2023/12/30 04:13:24;;;;;;;204.57;195.63;;;;;;;5.36;100.00;100206.03;5038301;28;20479;-42
2023/12/30 04:15:51;;;;;;;204.40;195.80;;;;;;;5.38;100.00;100211.97;5034210;28;20795;-45
2023/12/30 04:18:19;;;;;;;195.27;187.30;;;;;;;5.38;100.00;100193.47;5047603;28;20832;-44
2023/12/30 04:20:47;;;;;;;208.57;200.07;;;;;;;5.30;100.00;100197.00;5040246;28;20806;-45
2023/12/30 04:23:15;;;;;;;202.77;194.93;;;;;;;5.29;100.00;100197.16;5041418;28;20841;-42
2023/12/30 04:25:44;;;;;;;214.13;205.93;;;;;;;5.24;100.00;100202.16;5050174;28;20596;-43
2023/12/30 04:28:12;;;;;;;216.73;208.20;;;;;;;5.17;100.00;100209.97;5052455;28;20455;-44
2023/12/30 04:30:40;;;;;;;233.70;224.73;;;;;;;5.13;100.00;100200.75;5053845;28;20439;-45
2023/12/30 04:33:07;;;;;;;229.40;220.07;;;;;;;5.08;100.00;100199.63;5053934;28;20477;-43
2023/12/30 04:35:35;;;;;;;229.63;220.33;;;;;;;5.02;100.00;100198.47;5045485;28;20431;-47
2023/12/30 04:38:03;;;;;;;235.63;225.90;;;;;;;4.99;100.00;100207.59;5052975;28;20459;-45
2023/12/30 04:40:31;;;;;;;237.80;228.27;;;;;;;4.97;100.00;100209.59;5053537;28;20474;-43
2023/12/30 04:43:00;;;;;;;236.30;227.20;;;;;;;4.96;100.00;100215.84;5053694;28;20468;-46
2023/12/30 04:45:28;;;;;;;237.03;227.37;;;;;;;4.98;100.00;100211.25;5053529;28;20808;-46
2023/12/30 04:47:56;;;;;;;232.87;223.23;;;;;;;4.92;100.00;100214.56;5046768;28;20907;-43
2023/12/30 04:50:25;;;;;;;237.33;227.53;;;;;;;4.98;100.00;100224.47;5051052;28;20442;-44
2023/12/30 04:52:53;;;;;;;241.03;231.00;;;;;;;5.01;100.00;100229.41;5053319;28;20870;-44
2023/12/30 04:55:20;;;;;;;238.77;229.23;;;;;;;5.05;100.00;100224.56;5053219;28;20438;-42
2023/12/30 04:57:48;;;;;;;229.77;220.43;;;;;;;5.09;100.00;100225.88;5052832;28;20491;-45
2023/12/30 05:00:18;;;;;;;232.50;222.80;;;;;;;5.07;100.00;100235.81;5053422;28;20438;-46
2023/12/30 05:02:50;;;;;;;236.67;227.20;;;;;;;5.02;100.00;100235.47;5053345;28;20438;-42
2023/12/30 05:05:18;;;;;;;233.50;223.40;;;;;;;4.99;100.00;100234.00;5044568;28;20435;-41
2023/12/30 05:07:45;;;;;;;233.37;222.80;;;;;;;4.96;100.00;100236.16;5044733;28;20470;-43
2023/12/30 05:10:13;;;;;;;237.53;227.23;;;;;;;4.92;100.00;100233.06;5053003;28;20501;-40
2023/12/30 05:12:42;;;;;;;242.07;231.03;;;;;;;4.88;100.00;100234.41;5053161;28;20432;-43
2023/12/30 05:15:13;;;;;;;234.33;224.40;;;;;;;4.84;100.00;100230.44;5053344;28;20471;-46
2023/12/30 05:17:43;;;;;;;236.40;226.60;;;;;;;4.85;100.00;100231.28;5051719;28;20456;-41
2023/12/30 05:20:12;;;;;;;233.07;223.07;;;;;;;4.84;100.00;100238.38;5053151;28;20513;-45
2023/12/30 05:22:41;;;;;;;235.27;225.53;;;;;;;4.81;100.00;100245.81;5044675;28;20441;-46
2023/12/30 05:25:10;;;;;;;225.03;215.13;;;;;;;4.84;100.00;100254.22;5052893;28;20938;-43
2023/12/30 05:27:38;;;;;;;233.47;223.97;;;;;;;4.88;100.00;100250.25;5049095;28;21063;-44
2023/12/30 05:30:08;;;;;;;235.03;225.50;;;;;;;4.92;100.00;100258.66;5047169;28;20451;-42
2023/12/30 05:32:37;;;;;;;237.90;228.50;;;;;;;4.91;100.00;100257.00;5052648;28;20443;-41
2023/12/30 05:35:07;;;;;;;227.13;217.73;;;;;;;4.91;100.00;100264.94;5052764;28;20565;-42
2023/12/30 05:37:35;;;;;;;224.50;214.23;;;;;;;4.88;100.00;100260.00;5049630;28;20486;-43
2023/12/30 05:40:06;;;;;;;229.90;220.90;;;;;;;4.84;100.00;100266.59;5047267;28;20435;-42
2023/12/30 05:42:34;;;;;;;230.13;220.73;;;;;;;4.83;100.00;100268.44;5052562;28;20470;-47
2023/12/30 05:45:02;;;;;;;236.00;225.70;;;;;;;4.81;100.00;100275.69;5052640;28;20435;-46
2023/12/30 05:47:30;;;;;;;230.47;221.27;;;;;;;4.82;100.00;100279.16;5051744;28;20466;-46
2023/12/30 05:49:58;;;;;;;232.60;222.80;;;;;;;4.84;100.00;100299.13;5052575;28;20518;-49
2023/12/30 05:52:27;;;;;;;231.17;221.63;;;;;;;4.85;100.00;100284.13;5035737;28;20458;-43
2023/12/30 05:54:55;;;;;;;242.10;232.23;;;;;;;4.86;100.00;100283.97;5052195;28;20467;-44
2023/12/30 05:57:23;;;;;;;239.80;229.43;;;;;;;4.88;100.00;100296.97;5042883;28;20475;-47
2023/12/30 05:59:50;;;;;;;232.60;221.80;;;;;;;4.87;100.00;100304.06;5044827;28;20445;-45
2023/12/30 06:02:18;;;;;;;243.40;233.33;;;;;;;4.88;100.00;100321.59;5052370;28;20497;-44
2023/12/30 06:04:46;;;;;;;235.50;224.93;;;;;;;4.88;100.00;100316.31;5052023;28;20804;-44
2023/12/30 06:07:14;;;;;;;228.03;217.40;;;;;;;4.86;100.00;100314.84;5051627;28;20466;-45
2023/12/30 06:09:44;;;;;;;245.33;235.03;;;;;;;4.84;100.00;100317.63;5035357;28;20518;-41
2023/12/30 06:12:12;;;;;;;244.70;234.13;;;;;;;4.82;100.00;100316.97;5052409;28;20435;-43
2023/12/30 06:14:40;;;;;;;250.97;239.67;;;;;;;4.79;100.00;100319.97;5051598;28;20477;-43
2023/12/30 06:17:08;;;;;;;245.27;234.20;;;;;;;4.76;100.00;100324.75;5050962;28;20487;-45
2023/12/30 06:19:36;;;;;;;242.17;231.70;;;;;;;4.73;100.00;100331.22;5043240;28;20776;-43
2023/12/30 06:22:04;;;;;;;239.30;229.33;;;;;;;4.74;100.00;100334.69;5051755;28;20436;-41
2023/12/30 06:24:33;;;;;;;238.13;228.20;;;;;;;4.68;100.00;100338.81;5051330;28;20485;-44
2023/12/30 06:27:03;;;;;;;243.03;232.90;;;;;;;4.68;100.00;100349.38;5050884;28;20897;-48
2023/12/30 06:29:30;;;;;;;245.70;235.33;;;;;;;4.66;100.00;100355.84;5051063;28;20439;-44
2023/12/30 06:32:00;;;;;;;255.37;243.20;;;;;;;4.65;100.00;100356.81;5051430;28;20443;-43
2023/12/30 06:34:28;;;;;;;244.97;234.57;;;;;;;4.63;100.00;100356.16;5051174;28;20474;-41
2023/12/30 06:36:56;;;;;;;249.07;238.30;;;;;;;4.64;100.00;100366.53;5046527;28;21109;-42
2023/12/30 06:39:23;;;;;;;250.87;240.17;;;;;;;4.63;100.00;100358.81;5047910;28;20856;-40
2023/12/30 06:41:51;;;;;;;250.03;239.53;;;;;;;4.61;100.00;100368.69;5052025;28;20461;-46
2023/12/30 06:44:20;;;;;;;257.97;246.57;;;;;;;4.59;100.00;100366.25;5051609;28;20431;-42
2023/12/30 06:46:48;;;;;;;257.23;246.80;;;;;;;4.56;100.00;100371.03;5050431;28;20983;-44
2023/12/30 06:49:16;;;;;;;259.53;248.63;;;;;;;4.53;100.00;100382.75;5050566;28;20446;-43
2023/12/30 06:51:44;;;;;;;250.27;239.80;;;;;;;4.54;100.00;100375.66;5051542;28;20478;-43
2023/12/30 06:54:12;;;;;;;254.73;243.23;;;;;;;4.57;100.00;100386.69;5051300;28;20978;-42
2023/12/30 06:56:40;;;;;;;256.77;245.83;;;;;;;4.56;100.00;100389.50;5050513;28;20519;-43
2023/12/30 06:59:08;;;;;;;249.27;238.07;;;;;;;4.55;100.00;100393.97;5050920;28;20838;-43
2023/12/30 07:01:41;;;;;;;263.47;252.30;;;;;;;4.54;100.00;100405.50;5050891;28;20978;-44
2023/12/30 07:04:09;;;;;;;261.90;250.50;;;;;;;4.53;100.00;100395.94;5050998;28;20475;-46
2023/12/30 07:06:37;;;;;;;261.00;250.00;;;;;;;4.50;100.00;100409.47;5050390;28;20459;-45
2023/12/30 07:09:05;;;;;;;274.23;263.07;;;;;;;4.48;100.00;100408.81;5023113;28;20455;-41
2023/12/30 07:11:33;;;;;;;280.23;268.80;;;;;;;4.44;100.00;100424.19;5042515;28;20433;-42
2023/12/30 07:14:01;;;;;;;278.37;266.53;;;;;;;4.41;100.00;100413.13;5050788;28;20435;-45
2023/12/30 07:16:28;;;;;;;281.97;269.67;;;;;;;4.40;100.00;100419.38;5050368;28;21037;-41
2023/12/30 07:18:57;;;;;;;276.37;264.80;;;;;;;4.40;100.00;100417.56;5045925;28;20483;-45
2023/12/30 07:21:25;;;;;;;276.00;264.30;;;;;;;4.42;100.00;100428.78;5047653;28;20486;-45
2023/12/30 07:26:21;;;;;;;276.87;265.43;;;;;;;4.41;100.00;100439.50;5015912;28;20461;-36
2023/12/30 07:28:49;;;;;;;283.73;271.50;;;;;;;4.39;100.00;100449.41;5013642;28;20460;-37
2023/12/30 07:31:16;;;;;;;291.67;279.73;;;;;;;4.37;100.00;100451.38;5016171;28;20494;-36
2023/12/30 07:33:44;;;;;;;277.47;266.03;;;;;;;4.34;100.00;100454.34;5027401;28;20444;-40
2023/12/30 07:36:14;;;;;;;278.77;267.40;;;;;;;4.29;100.00;100468.03;5011095;28;21033;-37
2023/12/30 07:38:42;;;;;;;286.03;273.93;;;;;;;4.26;100.00;100464.91;5018701;28;20831;-37
2023/12/30 07:41:14;;;;;;;284.50;272.53;;;;;;;4.24;100.00;100461.59;5011138;28;20879;-35
2023/12/30 07:43:42;;;;;;;288.17;276.40;;;;;;;4.19;100.00;100464.72;5019212;28;20437;-38
2023/12/30 07:46:10;;;;;;;280.87;269.07;;;;;;;4.16;100.00;100469.50;5011227;28;20457;-42
2023/12/30 07:48:38;;;;;;;290.90;278.70;;;;;;;4.16;100.00;100472.13;5011757;28;20527;-38
2023/12/30 07:51:06;;;;;;;292.77;280.43;;;;;;;4.15;100.00;100468.66;5030958;28;20440;-36
2023/12/30 07:53:35;;;;;;;285.30;273.57;;;;;;;4.16;100.00;100486.16;5021723;28;20464;-38
2023/12/30 07:56:03;;;;;;;291.03;278.60;;;;;;;4.15;100.00;100487.13;5010980;28;20640;-37
2023/12/30 07:58:31;;;;;;;281.90;270.10;;;;;;;4.15;100.00;100495.06;5010211;28;20560;-40
2023/12/30 08:00:59;;;;;;;289.80;277.30;;;;;;;4.14;100.00;100498.69;5020451;28;20805;-38
2023/12/30 08:03:27;;;;;;;287.47;275.13;;;;;;;4.15;100.00;100500.31;5023435;28;20439;-42
2023/12/30 08:05:55;;;;;;;296.30;283.90;;;;;;;4.17;100.00;100502.81;5022935;28;20460;-38
2023/12/30 08:08:22;;;;;;;290.33;277.93;;;;;;;4.16;100.00;100509.91;5021710;28;20463;-38
2023/12/30 08:10:52;;;;;;;295.40;283.20;;;;;;;4.20;100.00;100507.78;5026214;28;20436;-37
2023/12/30 08:13:19;;;;;;;288.27;275.67;;;;;;;4.22;100.00;100526.91;5019659;28;20487;-39
2023/12/30 08:15:47;;;;;;;290.27;278.47;;;;;;;4.27;100.00;100516.72;5014479;28;20990;-39
2023/12/30 08:18:15;;;;;;;295.40;282.90;;;;;;;4.36;100.00;100521.81;5022548;28;20560;-39
2023/12/30 08:20:43;;;;;;;294.87;282.43;;;;;;;4.46;100.00;100526.97;5014549;28;20912;-39
2023/12/30 08:23:11;;;;;;;300.40;287.90;;;;;;;4.52;100.00;100523.69;5022852;28;20801;-38
2023/12/30 08:25:38;;;;;;;306.60;294.23;;;;;;;4.61;100.00;100525.34;5014360;28;20460;-39
2023/12/30 08:28:09;;;;;;;286.90;274.73;;;;;;;4.73;100.00;100531.13;5019133;28;20547;-39
2023/12/30 08:30:37;;;;;;;286.87;273.57;;;;;;;4.79;100.00;100527.81;5016994;28;20821;-37
2023/12/30 08:33:07;;;;;;;299.77;287.23;;;;;;;4.90;100.00;100538.06;5014491;28;20448;-37
2023/12/30 08:35:36;;;;;;;292.43;279.47;;;;;;;4.99;100.00;100545.00;5015017;28;20584;-37
2023/12/30 08:38:04;;;;;;;301.60;288.70;;;;;;;5.09;100.00;100545.66;5033734;28;20843;-39
2023/12/30 08:40:31;;;;;;;299.67;287.00;;;;;;;5.15;100.00;100544.19;5017412;28;20441;-39
2023/12/30 08:43:03;;;;;;;298.57;285.77;;;;;;;5.20;100.00;100547.13;5022792;28;20524;-38
2023/12/30 08:45:33;;;;;;;298.47;285.37;;;;;;;5.28;100.00;100555.09;5014240;28;20463;-42
2023/12/30 08:48:01;;;;;;;300.37;287.70;;;;;;;5.30;100.00;100559.22;5013114;28;21061;-41
2023/12/30 08:50:29;;;;;;;300.37;287.47;;;;;;;5.35;100.00;100554.22;5014340;28;20555;-42
2023/12/30 08:52:57;;;;;;;294.17;279.70;;;;;;;5.36;100.00;100561.19;5006266;28;20532;-37
2023/12/30 08:55:24;;;;;;;300.77;286.70;;;;;;;5.38;100.00;100559.19;5014051;28;20484;-37
2023/12/30 08:57:52;;;;;;;302.10;288.50;;;;;;;5.38;100.00;100561.00;5016174;28;20866;-40
2023/12/30 09:00:20;;;;;;;302.97;289.40;;;;;;;5.41;100.00;100572.06;5027317;28;20445;-37
2023/12/30 09:02:49;;;;;;;316.07;301.43;;;;;;;5.46;100.00;100576.88;5032364;28;20907;-39
2023/12/30 09:05:19;;;;;;;309.00;295.60;;;;;;;5.57;100.00;100572.06;5025653;28;20543;-37
2023/12/30 09:07:48;;;;;;;309.53;295.27;;;;;;;5.67;100.00;100579.00;5014699;28;20468;-39
2023/12/30 09:10:16;;;;;;;306.03;292.00;;;;;;;5.71;100.00;100582.94;5013887;28;20948;-37
2023/12/30 09:12:45;;;;;;;302.00;289.20;;;;;;;5.72;100.00;100585.41;5021304;28;20452;-39
2023/12/30 09:15:12;;;;;;;305.10;292.23;;;;;;;5.78;100.00;100592.69;5013580;28;20460;-40
2023/12/30 09:17:40;;;;;;;307.40;293.77;;;;;;;5.86;100.00;100597.16;5030629;28;20883;-37
2023/12/30 09:20:11;;;;;;;320.67;307.03;;;;;;;5.89;100.00;100597.63;5024484;28;20440;-40
2023/12/30 09:22:39;;;;;;;315.87;302.67;;;;;;;5.92;100.00;100591.19;5021878;28;20440;-40
2023/12/30 09:25:07;;;;;;;313.23;300.20;;;;;;;6.00;100.00;100604.41;5013433;28;20557;-40
2023/12/30 09:27:35;;;;;;;314.63;301.63;;;;;;;6.08;100.00;100597.25;5012690;28;20461;-37
2023/12/30 09:30:04;;;;;;;309.93;296.00;;;;;;;6.04;100.00;100603.88;5021978;28;20445;-35
2023/12/30 09:32:31;;;;;;;313.50;299.97;;;;;;;6.11;100.00;100604.03;5021236;28;20451;-40
2023/12/30 09:35:01;;;;;;;317.07;304.03;;;;;;;6.13;100.00;100608.16;5013322;28;20467;-39
2023/12/30 09:37:31;;;;;;;321.53;307.70;;;;;;;6.13;100.00;100615.25;5020523;28;20468;-36
2023/12/30 09:39:59;;;;;;;308.00;295.07;;;;;;;6.12;100.00;100617.06;5016874;28;20436;-37
2023/12/30 09:42:27;;;;;;;317.83;303.93;;;;;;;6.13;100.00;100618.75;5033141;28;20440;-38
2023/12/30 09:44:55;;;;;;;322.87;308.77;;;;;;;6.11;100.00;100626.03;5013641;28;20456;-39
2023/12/30 09:47:25;;;;;;;325.70;311.63;;;;;;;6.11;100.00;100631.34;5021104;28;20461;-38
2023/12/30 09:49:52;;;;;;;324.63;311.43;;;;;;;6.19;100.00;100624.34;5012867;28;20441;-38
2023/12/30 09:52:20;;;;;;;324.83;311.10;;;;;;;6.22;100.00;100618.69;5013175;28;20480;-38
2023/12/30 09:54:49;;;;;;;329.00;315.63;;;;;;;6.29;100.00;100630.28;5012551;28;20464;-38
2023/12/30 09:57:17;;;;;;;325.10;311.60;;;;;;;6.41;100.00;100635.03;5026933;28;20606;-39
2023/12/30 09:59:47;;;;;;;321.33;307.27;;;;;;;6.47;100.00;100641.47;5016149;28;20448;-36
2023/12/30 10:02:15;;;;;;;320.53;306.83;;;;;;;6.51;100.00;100640.13;5019034;28;20912;-37
2023/12/30 10:04:43;;;;;;;336.07;321.50;;;;;;;6.54;100.00;100645.06;5012655;28;20492;-38
2023/12/30 10:07:12;;;;;;;326.13;311.77;;;;;;;6.55;100.00;100639.59;5012407;28;20844;-41
2023/12/30 10:09:41;;;;;;;329.10;315.37;;;;;;;6.59;100.00;100635.59;5013102;28;20438;-37
2023/12/30 10:12:10;;;;;;;342.33;327.57;;;;;;;6.58;100.00;100641.06;5033006;28;20512;-38
2023/12/30 10:14:38;;;;;;;342.93;327.73;;;;;;;6.57;100.00;100632.28;5015437;28;20461;-39
2023/12/30 10:17:06;;;;;;;341.73;326.03;;;;;;;6.48;100.00;100640.47;5007741;28;20523;-36
2023/12/30 10:19:34;;;;;;;347.10;332.40;;;;;;;6.50;100.00;100633.16;5017789;28;20436;-38
2023/12/30 10:22:02;;;;;;;333.87;318.33;;;;;;;6.45;100.00;100630.22;5022171;28;20945;-37
2023/12/30 10:24:31;;;;;;;339.10;324.90;;;;;;;6.42;100.00;100643.81;5009745;28;20488;-37
2023/12/30 10:27:04;;;;;;;327.10;313.40;;;;;;;6.49;100.00;100639.44;5020282;28;21500;-37
2023/12/30 10:29:33;;;;;;;314.50;301.50;;;;;;;6.60;100.00;100647.03;5012288;28;20441;-39
2023/12/30 10:32:21;;;;;;;305.53;291.80;;;;;;;6.65;100.00;100645.50;5012136;28;20433;-36
2023/12/30 10:34:50;;;;;;;302.27;289.50;;;;;;;6.69;100.00;100652.09;5022129;28;20544;-37
2023/12/30 10:37:18;;;;;;;288.40;276.00;;;;;;;6.79;100.00;100641.28;5022221;28;20472;-36
2023/12/30 10:39:48;;;;;;;295.20;282.77;;;;;;;6.84;100.00;100646.88;5011870;28;20441;-38
2023/12/30 10:42:16;;;;;;;286.97;274.63;;;;;;;6.89;100.00;100649.84;5012353;28;20536;-37
2023/12/30 10:44:45;;;;;;;280.80;268.50;;;;;;;6.92;100.00;100648.69;5020169;28;20539;-36
2023/12/30 10:47:15;;;;;;;280.67;269.07;;;;;;;6.89;100.00;100647.19;5026372;28;20461;-38
2023/12/30 10:49:49;;;;;;;277.97;266.43;;;;;;;6.89;100.00;100646.38;5025156;28;20440;-37
2023/12/30 10:52:22;;;;;;;275.90;264.77;;;;;;;6.93;100.00;100650.34;5017711;28;20472;-40
2023/12/30 10:54:55;;;;;;;274.47;263.00;;;;;;;6.88;100.00;100647.34;5031612;28;20467;-39
2023/12/30 10:57:28;;;;;;;286.03;273.40;;;;;;;6.90;100.00;100645.38;5022916;28;20470;-39
2023/12/30 11:00:00;;;;;;;275.63;264.23;;;;;;;6.90;100.00;100640.88;5031700;28;20468;-38
2023/12/30 11:02:28;;;;;;;272.00;260.87;;;;;;;6.94;100.00;100659.91;5016881;28;20441;-37